»·PEaware :: DCM204 KSEZ-KASE

DCM204 :: KSEZ-KASE

FLIGHT INFORMATION

Flight Status: Arrived
Operator:
DotCom
More flights by this operator :: More flights under this callsign
Pilot: Bill F. (18685)
Aircraft: Cessna 525C Citation CJ4
(C25C)
More flights by this aircraft type
Origin: KSEZ Sedona
United States
Destination: KASE Aspen-Pitkin Co/Sardy
United States
More flights between these airports :: More routes between these airports
Route: OATES1 OATS FLG RHYSS DVC
File this flight plan on PilotEdge
Remarks:
Altitude:
(Current/Filed)
39,000ft
Speed:
(Current/Filed)
276kts
Departed: 18-Oct-21 10:23 PM
Arrived: 18-Oct-21 11:24 PM
Distance/Time
Traveled:
353nm/1:01
Distance/Time
To Go:
Arrived

Flight Plot

Page will automatically refresh every two minutes.

Flight plan parsing failed; only flown route is shown


Map Options




Map Legend


Flown Route
Filed Route
Departure Airport
Arrival Airport
Navaid (VOR, NDB)
Fix

Horizontal Profiles

Position Reports

Time Latitude Longitude Heading Altitude Ground
Speed
18-Oct-21 21:52 34.849935 -111.788863 192 4788ft 0kts
18-Oct-21 21:53 34.849935 -111.788863 192 4788ft 0kts
18-Oct-21 21:54 34.849935 -111.788863 192 4788ft 0kts
18-Oct-21 21:55 34.849935 -111.788863 192 4788ft 0kts
18-Oct-21 21:56 34.849935 -111.788863 192 4788ft 0kts
18-Oct-21 21:57 34.849935 -111.788863 192 4788ft 0kts
18-Oct-21 21:58 34.849935 -111.788863 192 4788ft 0kts
18-Oct-21 21:59 34.849935 -111.788863 192 4788ft 0kts
18-Oct-21 22:00 34.849935 -111.788863 192 4788ft 0kts
18-Oct-21 22:01 34.849935 -111.788863 192 4788ft 0kts
18-Oct-21 22:02 34.849935 -111.788863 192 4788ft 0kts
18-Oct-21 22:03 34.849935 -111.788863 192 4788ft 0kts
18-Oct-21 22:04 34.849935 -111.788863 192 4788ft 0kts
18-Oct-21 22:05 34.849935 -111.788863 192 4788ft 0kts
18-Oct-21 22:06 34.849935 -111.788863 192 4788ft 0kts
18-Oct-21 22:07 34.849935 -111.788863 192 4788ft 0kts
18-Oct-21 22:08 34.849935 -111.788863 192 4788ft 0kts
18-Oct-21 22:09 34.849935 -111.788863 192 4788ft 0kts
18-Oct-21 22:10 34.849935 -111.788863 192 4788ft 0kts
18-Oct-21 22:11 34.849935 -111.788863 192 4788ft 0kts
18-Oct-21 22:12 34.849935 -111.788863 192 4788ft 0kts
18-Oct-21 22:13 34.849935 -111.788863 192 4788ft 0kts
18-Oct-21 22:14 34.849935 -111.788863 192 4788ft 0kts
18-Oct-21 22:15 34.849935 -111.788863 192 4788ft 0kts
18-Oct-21 22:16 34.849905 -111.788871 193 4788ft 3kts
18-Oct-21 22:17 34.849996 -111.787846 48 4789ft 10kts
18-Oct-21 22:18 34.852255 -111.785057 44 4816ft 12kts
18-Oct-21 22:19 34.853552 -111.783105 120 4829ft 0kts
18-Oct-21 22:20 34.853552 -111.783105 120 4829ft 0kts
18-Oct-21 22:21 34.853552 -111.783105 120 4829ft 0kts
18-Oct-21 22:22 34.846191 -111.791959 229 4958ft 146kts
18-Oct-21 22:23 34.804726 -111.842820 226 9376ft 244kts
18-Oct-21 22:24 34.752837 -111.908168 225 10123ft 293kts
18-Oct-21 22:25 34.684102 -111.895881 123 11949ft 318kts
18-Oct-21 22:26 34.642729 -111.801827 125 13252ft 321kts
18-Oct-21 22:27 34.680019 -111.708985 5 14330ft 343kts
18-Oct-21 22:28 34.766580 -111.724694 356 15645ft 337kts
18-Oct-21 22:29 34.860584 -111.710405 355 16278ft 339kts
18-Oct-21 22:30 34.954817 -111.698848 356 17381ft 344kts
18-Oct-21 22:31 35.050363 -111.686843 356 18113ft 345kts
18-Oct-21 22:32 35.146564 -111.673387 7 18969ft 358kts
18-Oct-21 22:33 35.235518 -111.608850 23 20711ft 370kts
18-Oct-21 22:34 35.325643 -111.540814 24 24160ft 390kts
18-Oct-21 22:35 35.420346 -111.469831 23 27260ft 410kts
18-Oct-21 22:36 35.519696 -111.394932 25 29756ft 428kts
18-Oct-21 22:37 35.620843 -111.318283 23 32419ft 425kts
18-Oct-21 22:38 35.721210 -111.242365 24 34808ft 424kts
18-Oct-21 22:39 35.820645 -111.166393 23 36976ft 418kts
18-Oct-21 22:40 35.919310 -111.091503 23 38942ft 413kts
18-Oct-21 22:41 36.020133 -111.013915 24 39327ft 451kts
18-Oct-21 22:42 36.130991 -110.928945 23 39265ft 480kts
18-Oct-21 22:43 36.240643 -110.830937 38 39233ft 498kts
18-Oct-21 22:44 36.341092 -110.711886 38 39221ft 503kts
18-Oct-21 22:45 36.442683 -110.592134 37 39221ft 504kts
18-Oct-21 22:46 36.544656 -110.471208 39 39203ft 507kts
18-Oct-21 22:47 36.646473 -110.349675 38 39190ft 508kts
18-Oct-21 22:48 36.748845 -110.227880 39 39158ft 510kts
18-Oct-21 22:49 36.850893 -110.104838 38 39148ft 511kts
18-Oct-21 22:50 36.953222 -109.982273 38 39149ft 517kts
18-Oct-21 22:51 37.054476 -109.859202 39 39131ft 499kts
18-Oct-21 22:52 37.152684 -109.740541 38 39096ft 485kts
18-Oct-21 22:53 37.248455 -109.623340 39 39095ft 477kts
18-Oct-21 22:54 37.342730 -109.508579 38 39090ft 470kts
18-Oct-21 22:55 37.435598 -109.394142 40 39090ft 465kts
18-Oct-21 22:56 37.527979 -109.280693 38 39075ft 462kts
18-Oct-21 22:57 37.619362 -109.167435 40 39073ft 461kts
18-Oct-21 22:58 37.712015 -109.052644 38 39058ft 478kts
18-Oct-21 22:59 37.808756 -108.931894 41 39041ft 499kts
18-Oct-21 23:00 37.909683 -108.807973 39 39008ft 508kts
18-Oct-21 23:01 38.011943 -108.682705 40 39021ft 515kts
18-Oct-21 23:02 38.114578 -108.555306 40 39009ft 519kts
18-Oct-21 23:03 38.218293 -108.427208 41 39001ft 522kts
18-Oct-21 23:04 38.322064 -108.297244 40 39004ft 524kts
18-Oct-21 23:05 38.421042 -108.174094 41 38409ft 480kts
18-Oct-21 23:06 38.516881 -108.053110 41 35887ft 485kts
18-Oct-21 23:07 38.613065 -107.932506 42 33483ft 486kts
18-Oct-21 23:08 38.709402 -107.809994 44 30869ft 489kts
18-Oct-21 23:09 38.805964 -107.687522 43 28020ft 486kts
18-Oct-21 23:10 38.899399 -107.568265 46 25523ft 459kts
18-Oct-21 23:11 38.986240 -107.456495 47 23468ft 428kts
18-Oct-21 23:12 39.067640 -107.351597 46 21049ft 402kts
18-Oct-21 23:13 39.154541 -107.269811 30 18922ft 379kts
18-Oct-21 23:14 39.242579 -107.203990 31 16856ft 357kts
18-Oct-21 23:15 39.334666 -107.169024 4 14724ft 354kts
18-Oct-21 23:16 39.423945 -107.115416 46 13431ft 361kts
18-Oct-21 23:17 39.468281 -107.014832 112 13416ft 309kts
18-Oct-21 23:18 39.406758 -106.955987 159 13489ft 261kts
18-Oct-21 23:19 39.350782 -106.929751 167 12464ft 182kts
18-Oct-21 23:20 39.306477 -106.908906 161 10756ft 137kts
18-Oct-21 23:21 39.270207 -106.890888 164 8839ft 144kts
18-Oct-21 23:22 39.235443 -106.874776 161 7758ft 121kts
18-Oct-21 23:23 39.220377 -106.866458 34 7775ft 6kts
18-Oct-21 23:24 39.222876 -106.867103 74 7757ft 4kts
18-Oct-21 23:25 39.222890 -106.867033 75 7757ft 0kts
18-Oct-21 23:26 39.222890 -106.867033 75 7757ft 0kts
18-Oct-21 23:27 39.222890 -106.867033 75 7757ft 0kts
18-Oct-21 23:28 39.222890 -106.867033 75 7757ft 0kts
18-Oct-21 23:29 39.222890 -106.867033 75 7757ft 0kts
18-Oct-21 23:30 39.222890 -106.867033 75 7757ft 0kts
18-Oct-21 23:31 39.222890 -106.867033 75 7757ft 0kts
18-Oct-21 23:32 39.222890 -106.867033 75 7757ft 0kts
18-Oct-21 23:33 39.222890 -106.867033 75 7757ft 0kts
18-Oct-21 23:34 39.222890 -106.867033 75 7757ft 0kts
18-Oct-21 23:35 39.222890 -106.867033 75 7757ft 0kts
18-Oct-21 23:36 39.222890 -106.867033 75 7757ft 0kts
18-Oct-21 23:37 39.222890 -106.867033 75 7757ft 0kts

Navigation Log

Ident Type
Flight plan parsing failed, navigation log unavailable